Terminal Aerodrome Forecast
Issued by NWS

Home | Current Version | Previous Version | Graphics & Text | Print | Product List | Glossary On
Versions: 1 2 3 4 5 6 7 8 9 10 11 12 13 14 15 16
000
FTUS43 KMPX 152339
TAFRWF
TAF
KRWF 152339Z 1600/1624 18006KT P6SM BKN250
     FM161500 VRB03KT P6SM SCT050 BKN100
     FM162000 07004KT P6SM SCT025 OVC040
     FM162200 05005KT P6SM VCSH SCT020 OVC030=

USA.gov is the U.S. government's official web portal to all federal, state and local government web resources and services.